WCC68 KMKC-KTEB
Flight info
| Callsign | WCC68 |
|---|---|
| Flight time | N/A |
| Altitude | 45000 |
| Route | LAKES5 SPI FWA JHW LVZ5 |
| Aircraft | C680/M-SDFGHRWY/SB1 |
Departure
| Time | 2026-05-07 23:56 |
|---|---|
| Airport | Charles B. Wheeler Downtown Airport (KMKC) |
Arrival
| Time | N/A |
|---|---|
| Airport | Teterboro Airport (KTEB) |
| Time | Latitude | Longitude | Altitude | Speed | Heading |
|---|---|---|---|---|---|
| 2026-05-07 23:52 | 39.11587 | -94.59245 | 741 ft | 0 kts | 81° |
| 2026-05-07 23:53 | 39.11594 | -94.59234 | 741 ft | 4 kts | 13° |
| 2026-05-07 23:53 | 39.11633 | -94.59257 | 740 ft | 9 kts | 338° |
| 2026-05-07 23:53 | 39.11711 | -94.59278 | 742 ft | 14 kts | 346° |
| 2026-05-07 23:53 | 39.11831 | -94.59280 | 741 ft | 20 kts | 6° |
| 2026-05-07 23:54 | 39.11984 | -94.59237 | 743 ft | 24 kts | 13° |
| 2026-05-07 23:54 | 39.12146 | -94.59168 | 748 ft | 26 kts | 37° |
| 2026-05-07 23:54 | 39.12288 | -94.59021 | 751 ft | 27 kts | 38° |
| 2026-05-07 23:54 | 39.12417 | -94.58917 | 751 ft | 20 kts | 14° |
| 2026-05-07 23:55 | 39.12528 | -94.58912 | 754 ft | 7 kts | 299° |
| 2026-05-07 23:55 | 39.12493 | -94.58974 | 751 ft | 13 kts | 219° |
| 2026-05-07 23:55 | 39.12242 | -94.59228 | 748 ft | 90 kts | 218° |
| 2026-05-07 23:55 | 39.11584 | -94.59917 | 1152 ft | 151 kts | 220° |
| 2026-05-07 23:56 | 39.10654 | -94.60909 | 1967 ft | 194 kts | 221° |
| 2026-05-07 23:56 | 39.09533 | -94.62113 | 2981 ft | 224 kts | 221° |
| 2026-05-07 23:56 | 39.08282 | -94.63460 | 4154 ft | 243 kts | 221° |
| 2026-05-07 23:56 | 39.06949 | -94.64892 | 5443 ft | 255 kts | 223° |
| 2026-05-07 23:57 | 39.05564 | -94.66382 | 6747 ft | 263 kts | 224° |
| 2026-05-07 23:57 | 39.04162 | -94.67893 | 8024 ft | 269 kts | 225° |
| 2026-05-07 23:57 | 39.02712 | -94.69456 | 9367 ft | 274 kts | 226° |
| 2026-05-07 23:57 | 39.01253 | -94.71030 | 10620 ft | 276 kts | 227° |
| 2026-05-07 23:58 | 38.99794 | -94.72599 | 11865 ft | 278 kts | 227° |
| 2026-05-07 23:58 | 38.98296 | -94.74191 | 13062 ft | 282 kts | 227° |
| 2026-05-07 23:58 | 38.97263 | -94.75281 | 13815 ft | 286 kts | 227° |